Time;durP1;ratioP1;P1;durP2;ratioP2;P2;SDS_P1;SDS_P2;PMS_P1;PMS_P2;Temp;Humidity;BMP_temperature;BMP_pressure;BME280_temperature;BME280_humidity;BME280_pressure;Samples;Min_cycle;Max_cycle;Signal;HPM_P1;HPM_P2
2022/04/26 03:37:22;;;;;;;;;;;12.50;91.80;;;;;;5108873;28;19959;-88
2022/04/26 03:39:47;;;;;;;;;;;12.50;91.90;;;;;;5110903;28;19958;-89
2022/04/26 03:42:13;;;;;;;;;;;12.50;92.00;;;;;;5110478;28;19955;-89
2022/04/26 03:44:39;;;;;;;;;;;12.50;92.00;;;;;;5110529;28;19966;-89
2022/04/26 03:49:53;;;;;;;;;;;12.50;92.00;;;;;;5143885;27;20433;-89
2022/04/26 03:52:19;;;;;;;;;;;12.50;92.10;;;;;;5110974;28;20016;-88
2022/04/26 03:54:45;;;;;;;;;;;12.50;92.20;;;;;;5092828;28;20312;-89
2022/04/26 03:57:10;;;;;;;;;;;12.40;92.30;;;;;;5090578;28;19970;-89
2022/04/26 03:59:36;;;;;;;;;;;12.40;92.40;;;;;;5106209;28;19956;-89
2022/04/26 04:02:02;;;;;;;;;;;12.40;92.60;;;;;;5102252;28;19952;-89
2022/04/26 04:04:27;;;;;;;;;;;12.40;92.70;;;;;;5110067;28;20025;-88
2022/04/26 04:06:53;;;;;;;;;;;12.40;92.70;;;;;;5103650;28;20419;-89
2022/04/26 04:09:18;;;;;;;;;;;12.40;92.80;;;;;;5088730;28;19998;-89
2022/04/26 04:11:44;;;;;;;;;;;12.40;92.80;;;;;;5090286;28;19977;-89
2022/04/26 04:14:09;;;;;;;;;;;12.40;92.80;;;;;;5090216;28;19946;-89
2022/04/26 04:16:35;;;;;;;;;;;12.40;92.80;;;;;;5091157;28;19964;-89
2022/04/26 04:19:19;;;;;;;;;;;12.40;92.80;;;;;;5090511;28;19958;-89
2022/04/26 04:21:45;;;;;;;;;;;12.40;92.70;;;;;;5090145;28;19954;-89
2022/04/26 04:24:11;;;;;;;;;;;12.40;92.60;;;;;;5091226;28;19971;-89
2022/04/26 04:26:37;;;;;;;;;;;12.50;92.50;;;;;;5090059;28;20044;-89
2022/04/26 04:29:03;;;;;;;;;;;12.40;92.50;;;;;;5089899;28;20556;-90
2022/04/26 04:31:28;;;;;;;;;;;12.40;92.50;;;;;;5097578;28;20463;-89
2022/04/26 04:33:54;;;;;;;;;;;12.40;92.50;;;;;;5110174;28;20366;-89
2022/04/26 04:36:19;;;;;;;;;;;12.40;92.50;;;;;;5110156;28;19959;-89
2022/04/26 04:38:45;;;;;;;;;;;12.50;92.50;;;;;;5110121;28;19962;-89
2022/04/26 04:41:10;;;;;;;;;;;12.50;92.60;;;;;;5108383;28;19960;-89
2022/04/26 04:45:47;;;;;;;;;;;12.50;92.50;;;;;;5144120;27;19982;-89
2022/04/26 04:52:56;;;;;;;;;;;12.60;92.10;;;;;;5144277;27;20007;-89
2022/04/26 04:55:22;;;;;;;;;;;12.60;92.00;;;;;;5110575;28;19958;-89
2022/04/26 04:57:47;;;;;;;;;;;12.50;91.90;;;;;;5109135;28;19955;-89
2022/04/26 05:00:13;;;;;;;;;;;12.50;91.90;;;;;;5110875;28;20052;-89
2022/04/26 05:02:39;;;;;;;;;;;12.40;91.80;;;;;;5110539;28;19951;-88
2022/04/26 05:05:05;;;;;;;;;;;12.40;91.80;;;;;;5103210;28;19966;-89
2022/04/26 05:07:30;;;;;;;;;;;12.40;91.90;;;;;;5096199;28;20010;-89
2022/04/26 05:09:56;;;;;;;;;;;12.40;92.00;;;;;;5097233;28;20409;-89
2022/04/26 05:12:21;;;;;;;;;;;12.40;92.00;;;;;;5089965;28;20055;-89
2022/04/26 05:14:47;;;;;;;;;;;12.40;92.00;;;;;;5089552;28;19945;-89
2022/04/26 05:17:12;;;;;;;;;;;12.40;92.10;;;;;;5089465;28;20023;-89
2022/04/26 05:19:38;;;;;;;;;;;12.30;92.20;;;;;;5089809;28;19984;-89
2022/04/26 05:22:09;;;;;;;;;;;12.40;92.30;;;;;;5098551;28;19968;-89
2022/04/26 05:24:54;;;;;;;;;;;12.40;92.40;;;;;;5088825;28;19973;-89
2022/04/26 05:27:23;;;;;;;;;;;12.40;92.40;;;;;;5089744;28;20015;-88
2022/04/26 05:29:49;;;;;;;;;;;12.40;92.40;;;;;;5088725;28;19991;-88
2022/04/26 05:32:19;;;;;;;;;;;12.40;92.40;;;;;;5088587;28;20372;-89
2022/04/26 05:34:44;;;;;;;;;;;12.40;92.40;;;;;;5088677;28;19957;-89
2022/04/26 05:37:10;;;;;;;;;;;12.50;92.40;;;;;;5088814;28;19954;-88
2022/04/26 05:39:35;;;;;;;;;;;12.50;92.40;;;;;;5088162;28;19955;-89
2022/04/26 05:42:01;;;;;;;;;;;12.60;92.40;;;;;;5088786;28;19955;-89
2022/04/26 05:44:26;;;;;;;;;;;12.60;92.30;;;;;;5084282;28;19972;-89
2022/04/26 05:46:52;;;;;;;;;;;12.70;92.20;;;;;;5087170;28;19959;-90
2022/04/26 05:49:17;;;;;;;;;;;12.80;92.20;;;;;;5087869;28;19952;-89
2022/04/26 05:51:43;;;;;;;;;;;12.90;92.00;;;;;;5087707;28;19978;-89
2022/04/26 05:54:09;;;;;;;;;;;12.90;91.70;;;;;;5082215;28;19959;-89
2022/04/26 05:56:34;;;;;;;;;;;12.90;91.40;;;;;;5087336;28;20363;-88
2022/04/26 05:59:00;;;;;;;;;;;13.00;91.20;;;;;;5087813;28;19967;-88
2022/04/26 06:01:25;;;;;;;;;;;12.90;91.10;;;;;;5088000;28;20040;-89
2022/04/26 06:03:51;;;;;;;;;;;12.90;91.00;;;;;;5077183;28;19999;-89
2022/04/26 06:06:16;;;;;;;;;;;12.90;91.00;;;;;;5073983;28;19972;-89
2022/04/26 06:08:42;;;;;;;;;;;13.00;91.00;;;;;;5074518;28;20458;-89
2022/04/26 06:11:08;;;;;;;;;;;13.00;91.00;;;;;;5073889;28;20042;-89
2022/04/26 06:13:33;;;;;;;;;;;13.00;91.10;;;;;;5068663;28;20047;-90
2022/04/26 06:15:59;;;;;;;;;;;13.00;91.20;;;;;;5072217;28;20043;-88
2022/04/26 06:18:24;;;;;;;;;;;13.10;91.10;;;;;;5072682;28;19952;-89
2022/04/26 06:20:50;;;;;;;;;;;13.10;91.10;;;;;;5066330;28;19982;-88
2022/04/26 06:23:15;;;;;;;;;;;13.10;91.00;;;;;;5079091;28;19956;-89
2022/04/26 06:25:41;;;;;;;;;;;13.20;91.00;;;;;;5075080;28;19975;-89
2022/04/26 06:28:09;;;;;;;;;;;13.30;90.80;;;;;;5069137;28;19970;-89
2022/04/26 06:30:38;;;;;;;;;;;13.30;90.70;;;;;;5074061;28;20131;-89
2022/04/26 06:33:04;;;;;;;;;;;13.40;90.60;;;;;;5073007;28;20055;-88
2022/04/26 06:35:30;;;;;;;;;;;13.60;90.20;;;;;;5073599;28;19957;-89
2022/04/26 06:37:55;;;;;;;;;;;13.60;89.90;;;;;;5074456;28;19984;-89
2022/04/26 06:40:21;;;;;;;;;;;13.60;89.70;;;;;;5074655;28;19958;-90
2022/04/26 06:42:46;;;;;;;;;;;13.70;89.50;;;;;;5074271;28;19987;-89
2022/04/26 06:45:12;;;;;;;;;;;13.70;89.50;;;;;;5074382;28;19951;-89
2022/04/26 06:47:37;;;;;;;;;;;13.80;89.60;;;;;;5066484;28;19984;-89
2022/04/26 06:50:03;;;;;;;;;;;13.90;89.60;;;;;;5081945;28;19982;-89
2022/04/26 06:52:30;;;;;;;;;;;13.90;89.70;;;;;;5078785;28;20014;-89
2022/04/26 06:54:55;;;;;;;;;;;13.90;89.40;;;;;;5070738;28;19955;-90
2022/04/26 06:57:21;;;;;;;;;;;13.90;89.40;;;;;;5072465;28;19972;-89
2022/04/26 06:59:47;;;;;;;;;;;13.90;89.30;;;;;;5072292;28;19982;-89
2022/04/26 07:02:12;;;;;;;;;;;13.90;89.00;;;;;;5072615;28;20053;-89
2022/04/26 07:04:38;;;;;;;;;;;13.90;88.50;;;;;;5070348;28;20030;-89
2022/04/26 07:07:03;;;;;;;;;;;13.90;88.70;;;;;;5072591;28;20080;-89
2022/04/26 07:09:29;;;;;;;;;;;13.90;88.80;;;;;;5074352;28;19999;-89
2022/04/26 07:11:54;;;;;;;;;;;13.90;88.80;;;;;;5070332;28;20379;-89
2022/04/26 07:14:20;;;;;;;;;;;13.90;88.80;;;;;;5073440;28;19966;-89
2022/04/26 07:16:48;;;;;;;;;;;13.80;88.80;;;;;;5073518;28;20021;-89
2022/04/26 07:19:14;;;;;;;;;;;13.90;89.10;;;;;;5072905;28;19988;-89
2022/04/26 07:21:41;;;;;;;;;;;13.90;89.00;;;;;;5070268;28;20414;-89
2022/04/26 07:24:06;;;;;;;;;;;13.90;89.10;;;;;;5072273;28;19976;-88
2022/04/26 07:26:32;;;;;;;;;;;14.00;89.10;;;;;;5070854;28;19977;-89
2022/04/26 07:28:57;;;;;;;;;;;14.10;88.90;;;;;;5071459;28;19962;-90
2022/04/26 07:31:23;;;;;;;;;;;14.10;88.90;;;;;;5070889;28;19974;-89
2022/04/26 07:36:34;;;;;;;;;;;14.30;88.70;;;;;;5077697;28;19980;-89
2022/04/26 07:38:59;;;;;;;;;;;14.40;88.40;;;;;;5087822;28;19962;-89
2022/04/26 07:41:25;;;;;;;;;;;14.50;88.00;;;;;;5067961;28;19966;-89
2022/04/26 07:43:52;;;;;;;;;;;14.50;87.70;;;;;;5069955;28;19963;-89
2022/04/26 07:46:18;;;;;;;;;;;14.60;87.60;;;;;;5071617;28;19960;-89
2022/04/26 07:48:43;;;;;;;;;;;14.80;87.20;;;;;;5073099;28;19969;-89
2022/04/26 07:51:10;;;;;;;;;;;14.80;86.70;;;;;;5072249;28;20143;-89
2022/04/26 07:53:37;;;;;;;;;;;14.90;86.80;;;;;;5072455;28;19970;-89
2022/04/26 07:56:02;;;;;;;;;;;14.90;86.70;;;;;;5072127;28;20423;-88
2022/04/26 07:58:29;;;;;;;;;;;14.90;86.60;;;;;;5071874;28;19990;-89
2022/04/26 08:00:54;;;;;;;;;;;15.10;86.70;;;;;;5070184;28;20330;-88
2022/04/26 08:03:20;;;;;;;;;;;15.10;86.10;;;;;;5069316;28;20345;-89
2022/04/26 08:05:46;;;;;;;;;;;15.30;85.70;;;;;;5073051;28;20022;-89
2022/04/26 08:08:12;;;;;;;;;;;15.30;85.60;;;;;;5070031;28;19961;-89
2022/04/26 08:10:37;;;;;;;;;;;15.40;85.10;;;;;;5071637;28;19988;-89
2022/04/26 08:13:03;;;;;;;;;;;15.40;84.70;;;;;;5072173;28;20002;-89
2022/04/26 08:15:29;;;;;;;;;;;15.40;84.70;;;;;;5072461;28;19964;-89
2022/04/26 08:17:54;;;;;;;;;;;15.40;84.50;;;;;;5061457;28;20362;-89
2022/04/26 08:20:20;;;;;;;;;;;15.50;84.40;;;;;;5071672;28;20413;-89
2022/04/26 08:22:45;;;;;;;;;;;15.70;84.40;;;;;;5070641;28;20092;-89
2022/04/26 08:27:55;;;;;;;;;;;15.80;83.80;;;;;;5069624;28;19985;-89
2022/04/26 08:30:22;;;;;;;;;;;15.90;83.50;;;;;;5072306;28;19952;-90
2022/04/26 08:32:48;;;;;;;;;;;15.90;83.10;;;;;;5071293;28;20096;-90
2022/04/26 08:35:15;;;;;;;;;;;16.00;82.70;;;;;;5070078;28;20054;-89
2022/04/26 08:37:43;;;;;;;;;;;15.90;82.70;;;;;;5070066;28;19950;-89
2022/04/26 08:40:08;;;;;;;;;;;15.70;82.50;;;;;;5063380;28;20410;-89
2022/04/26 08:42:34;;;;;;;;;;;15.60;83.60;;;;;;5069731;28;19977;-89
2022/04/26 08:45:00;;;;;;;;;;;15.60;83.70;;;;;;5068377;28;19956;-89
2022/04/26 08:52:56;;;;;;;;;;;15.70;83.00;;;;;;5062477;28;20022;-89
2022/04/26 08:55:22;;;;;;;;;;;15.80;82.60;;;;;;5070945;28;19960;-89
2022/04/26 08:57:47;;;;;;;;;;;15.80;82.30;;;;;;5069394;28;19942;-89
2022/04/26 09:00:13;;;;;;;;;;;15.80;81.90;;;;;;5069095;28;19969;-89
2022/04/26 09:02:39;;;;;;;;;;;15.90;82.20;;;;;;5069800;28;20025;-89
2022/04/26 09:05:12;;;;;;;;;;;16.00;81.90;;;;;;5070957;28;20013;-89
2022/04/26 09:07:39;;;;;;;;;;;15.90;81.60;;;;;;5072741;28;19952;-89
2022/04/26 09:10:05;;;;;;;;;;;16.00;81.50;;;;;;5069714;28;20009;-89
2022/04/26 09:12:31;;;;;;;;;;;16.00;81.40;;;;;;5068237;28;20053;-89
2022/04/26 09:15:11;;;;;;;;;;;16.00;81.80;;;;;;5070904;28;20116;-89
2022/04/26 09:17:37;;;;;;;;;;;16.00;81.60;;;;;;5068736;28;19955;-90
2022/04/26 09:20:04;;;;;;;;;;;16.10;82.10;;;;;;5071411;28;19977;-90
2022/04/26 09:22:30;;;;;;;;;;;16.30;81.60;;;;;;5071466;28;19974;-89
2022/04/26 09:24:59;;;;;;;;;;;16.40;81.50;;;;;;5070376;28;19971;-89
2022/04/26 09:27:26;;;;;;;;;;;16.50;81.30;;;;;;5071222;28;20069;-89
2022/04/26 09:29:51;;;;;;;;;;;16.70;80.50;;;;;;5070083;28;19949;-89
2022/04/26 09:32:17;;;;;;;;;;;16.80;81.40;;;;;;5058584;28;19984;-89
2022/04/26 09:34:42;;;;;;;;;;;17.00;80.50;;;;;;5068480;28;20396;-89
2022/04/26 09:37:08;;;;;;;;;;;17.00;79.30;;;;;;5068576;28;19942;-89
2022/04/26 09:39:33;;;;;;;;;;;17.10;78.60;;;;;;5075536;28;19968;-89
2022/04/26 09:41:59;;;;;;;;;;;17.10;77.90;;;;;;5074812;28;20323;-89
2022/04/26 09:44:34;;;;;;;;;;;17.00;78.50;;;;;;5074217;28;20065;-89
2022/04/26 09:47:00;;;;;;;;;;;16.80;78.60;;;;;;5075477;28;19951;-89
2022/04/26 09:49:26;;;;;;;;;;;16.80;78.40;;;;;;5075182;28;19970;-89
2022/04/26 09:51:59;;;;;;;;;;;16.80;78.10;;;;;;5072222;28;19997;-89
2022/04/26 09:54:25;;;;;;;;;;;17.00;78.40;;;;;;5075540;28;19954;-90
2022/04/26 09:56:51;;;;;;;;;;;17.20;77.80;;;;;;5075061;28;20372;-89
2022/04/26 09:59:27;;;;;;;;;;;17.30;76.90;;;;;;5075848;28;19978;-89
2022/04/26 10:01:57;;;;;;;;;;;17.40;76.40;;;;;;5075716;28;19980;-89
2022/04/26 10:04:23;;;;;;;;;;;17.30;76.60;;;;;;5075027;28;19956;-89
2022/04/26 10:06:50;;;;;;;;;;;17.40;76.00;;;;;;5074168;28;19955;-89
2022/04/26 10:09:16;;;;;;;;;;;17.40;75.70;;;;;;5074961;28;19953;-89
2022/04/26 10:11:42;;;;;;;;;;;17.30;75.30;;;;;;5075344;28;20453;-89
2022/04/26 10:14:08;;;;;;;;;;;17.30;76.60;;;;;;5075369;28;19938;-89
2022/04/26 10:16:34;;;;;;;;;;;17.20;75.70;;;;;;5074830;28;20046;-89
2022/04/26 10:19:09;;;;;;;;;;;17.10;75.80;;;;;;5075160;28;20429;-89
2022/04/26 10:21:35;;;;;;;;;;;17.10;75.70;;;;;;5075343;28;19949;-89
2022/04/26 10:24:04;;;;;;;;;;;17.20;76.40;;;;;;5075225;28;20431;-89
2022/04/26 10:26:38;;;;;;;;;;;17.30;75.80;;;;;;5075774;28;19959;-89
2022/04/26 10:29:07;;;;;;;;;;;17.50;75.70;;;;;;5075413;28;19977;-89
2022/04/26 10:31:38;;;;;;;;;;;17.70;75.90;;;;;;5075042;28;19965;-89
2022/04/26 10:34:16;;;;;;;;;;;17.80;74.80;;;;;;5075563;28;19958;-89
2022/04/26 10:36:42;;;;;;;;;;;17.90;74.00;;;;;;5075046;28;19940;-90
2022/04/26 10:39:07;;;;;;;;;;;17.90;74.00;;;;;;5075007;28;20312;-89
2022/04/26 10:41:34;;;;;;;;;;;18.00;73.50;;;;;;5075183;28;19953;-89
2022/04/26 10:44:21;;;;;;;;;;;18.10;72.90;;;;;;5075205;28;19961;-89
2022/04/26 10:47:07;;;;;;;;;;;18.30;71.90;;;;;;5075157;28;20026;-89
2022/04/26 10:49:32;;;;;;;;;;;18.60;72.30;;;;;;5070447;28;19992;-89
2022/04/26 10:52:22;;;;;;;;;;;18.90;70.10;;;;;;5074782;28;20087;-89
2022/04/26 10:55:05;;;;;;;;;;;19.10;69.40;;;;;;5075025;28;19927;-89
2022/04/26 10:57:31;;;;;;;;;;;19.30;66.90;;;;;;5074966;28;19970;-89
2022/04/26 11:00:01;;;;;;;;;;;19.30;66.00;;;;;;5074634;28;20432;-89
2022/04/26 11:02:28;;;;;;;;;;;19.30;66.10;;;;;;5073523;28;20367;-89
2022/04/26 11:04:57;;;;;;;;;;;19.50;66.40;;;;;;5074498;28;19909;-89
2022/04/26 11:07:25;;;;;;;;;;;19.50;65.60;;;;;;5074310;28;19936;-90
2022/04/26 11:09:55;;;;;;;;;;;19.50;66.00;;;;;;5074424;28;19941;-89
2022/04/26 11:12:21;;;;;;;;;;;19.50;67.20;;;;;;5074256;28;19990;-89
2022/04/26 11:14:48;;;;;;;;;;;19.50;68.60;;;;;;5074590;28;19931;-90
2022/04/26 11:17:17;;;;;;;;;;;19.30;68.40;;;;;;5074559;28;20018;-89
2022/04/26 11:19:55;;;;;;;;;;;19.30;68.20;;;;;;5074503;28;19949;-89
2022/04/26 11:22:21;;;;;;;;;;;19.20;68.90;;;;;;5073723;28;19927;-89
2022/04/26 11:28:05;;;;;;;;;;;19.30;68.10;;;;;;5066668;28;19943;-89
2022/04/26 11:30:54;;;;;;;;;;;19.30;68.20;;;;;;5073999;28;19919;-89
2022/04/26 11:33:24;;;;;;;;;;;19.30;66.90;;;;;;5069012;28;19933;-89
2022/04/26 11:35:53;;;;;;;;;;;19.50;66.10;;;;;;5077561;28;19919;-89
2022/04/26 11:38:19;;;;;;;;;;;19.50;66.80;;;;;;5074492;28;19998;-89
2022/04/26 11:40:49;;;;;;;;;;;19.50;67.60;;;;;;5074281;28;20346;-90
2022/04/26 11:43:18;;;;;;;;;;;19.60;67.30;;;;;;5071876;28;20428;-89
2022/04/26 11:45:45;;;;;;;;;;;19.70;66.40;;;;;;5073070;28;19934;-89
2022/04/26 11:48:15;;;;;;;;;;;19.80;65.30;;;;;;5074039;28;19970;-89
2022/04/26 11:50:41;;;;;;;;;;;19.80;63.90;;;;;;5071187;28;19953;-89
2022/04/26 11:53:11;;;;;;;;;;;19.80;64.40;;;;;;5072817;28;19927;-89
2022/04/26 11:55:41;;;;;;;;;;;19.70;64.70;;;;;;5071729;28;20493;-89
2022/04/26 11:58:27;;;;;;;;;;;19.60;64.70;;;;;;5072032;28;19934;-89
2022/04/26 12:01:02;;;;;;;;;;;19.60;65.70;;;;;;5062118;28;20009;-89
2022/04/26 12:03:31;;;;;;;;;;;19.60;66.10;;;;;;5071287;28;19913;-89
2022/04/26 12:06:01;;;;;;;;;;;19.50;67.10;;;;;;5072956;28;20438;-90
2022/04/26 12:08:28;;;;;;;;;;;19.60;67.50;;;;;;5071764;28;19934;-89
2022/04/26 12:10:54;;;;;;;;;;;19.70;66.60;;;;;;5072013;28;19963;-89
2022/04/26 12:13:37;;;;;;;;;;;19.70;65.30;;;;;;5071128;28;19919;-89
2022/04/26 12:16:13;;;;;;;;;;;19.60;66.40;;;;;;5071388;28;20428;-89
2022/04/26 12:18:55;;;;;;;;;;;19.30;67.30;;;;;;5072981;28;20032;-89
2022/04/26 12:21:21;;;;;;;;;;;18.90;68.10;;;;;;5069607;28;19964;-89
2022/04/26 12:23:47;;;;;;;;;;;18.80;69.30;;;;;;5071316;28;19917;-89
2022/04/26 12:26:14;;;;;;;;;;;18.70;68.60;;;;;;5070912;28;19919;-89
2022/04/26 12:28:50;;;;;;;;;;;18.50;70.10;;;;;;5069514;28;19939;-89
2022/04/26 12:31:23;;;;;;;;;;;18.70;69.30;;;;;;5072391;28;19977;-90
2022/04/26 12:34:12;;;;;;;;;;;19.00;69.10;;;;;;5071181;28;19963;-89
2022/04/26 12:36:53;;;;;;;;;;;19.30;68.80;;;;;;5073177;28;19924;-90
2022/04/26 12:39:19;;;;;;;;;;;19.80;66.90;;;;;;5071198;28;19967;-89
2022/04/26 12:41:52;;;;;;;;;;;20.20;65.50;;;;;;5072958;28;20284;-90
2022/04/26 12:44:18;;;;;;;;;;;20.40;64.60;;;;;;5069958;28;19924;-90
2022/04/26 12:50:27;;;;;;;;;;;20.40;63.40;;;;;;5072061;28;19919;-89
2022/04/26 12:52:29;;;;;;;;;;;20.40;64.90;;;;;;5049952;22;19971;-89
2022/04/26 12:54:55;;;;;;;;;;;20.70;62.30;;;;;;5031816;28;19937;-89
2022/04/26 12:57:21;;;;;;;;;;;20.80;62.80;;;;;;5031871;28;20053;-90
2022/04/26 12:59:47;;;;;;;;;;;21.70;63.70;;;;;;5030827;28;20607;-90
2022/04/26 13:02:12;;;;;;;;;;;23.10;59.90;;;;;;5010376;28;19984;-90
2022/04/26 13:04:38;;;;;;;;;;;24.60;55.60;;;;;;5032540;28;19920;-90
2022/04/26 13:07:04;;;;;;;;;;;26.30;50.40;;;;;;5031601;28;19948;-90
2022/04/26 13:09:29;;;;;;;;;;;27.70;45.30;;;;;;5028080;28;20018;-90
2022/04/26 13:11:55;;;;;;;;;;;28.50;42.20;;;;;;5009332;28;19924;-90
2022/04/26 13:14:21;;;;;;;;;;;29.10;40.80;;;;;;5033293;28;19913;-90
2022/04/26 13:16:46;;;;;;;;;;;28.90;41.20;;;;;;5035838;28;19924;-91
2022/04/26 13:19:12;;;;;;;;;;;28.30;42.40;;;;;;5035201;28;19983;-90
2022/04/26 13:21:37;;;;;;;;;;;27.80;42.70;;;;;;5031897;28;20359;-90
2022/04/26 13:24:03;;;;;;;;;;;26.30;46.20;;;;;;5014655;28;20341;-90
2022/04/26 13:26:31;;;;;;;;;;;25.20;48.90;;;;;;5035570;28;20361;-90
2022/04/26 13:28:56;;;;;;;;;;;24.30;52.30;;;;;;5036082;28;19999;-90
2022/04/26 13:31:23;;;;;;;;;;;23.70;53.40;;;;;;5034162;28;20077;-90
2022/04/26 13:33:48;;;;;;;;;;;23.10;55.40;;;;;;5036210;28;19920;-90
2022/04/26 13:36:14;;;;;;;;;;;22.70;54.80;;;;;;5031539;28;19977;-90
2022/04/26 13:38:39;;;;;;;;;;;22.30;57.50;;;;;;5035683;28;20031;-89
2022/04/26 13:41:06;;;;;;;;;;;22.00;59.50;;;;;;5033413;28;19943;-89
2022/04/26 13:43:31;;;;;;;;;;;21.60;61.10;;;;;;5031916;28;19914;-90
2022/04/26 13:45:57;;;;;;;;;;;21.30;61.70;;;;;;5029190;28;20003;-89
2022/04/26 13:48:22;;;;;;;;;;;21.00;61.90;;;;;;5031690;28;19920;-90
2022/04/26 13:50:48;;;;;;;;;;;20.80;63.40;;;;;;5033758;28;20020;-89
2022/04/26 13:53:13;;;;;;;;;;;20.50;62.70;;;;;;5034163;28;19950;-90
2022/04/26 13:55:39;;;;;;;;;;;20.40;62.10;;;;;;5027781;28;19957;-89
2022/04/26 13:58:08;;;;;;;;;;;20.30;61.70;;;;;;5029876;28;19913;-90
2022/04/26 14:00:35;;;;;;;;;;;20.10;62.80;;;;;;5034627;28;20063;-90
2022/04/26 14:03:01;;;;;;;;;;;19.80;64.20;;;;;;5034107;28;20059;-90
2022/04/26 14:05:27;;;;;;;;;;;19.70;66.20;;;;;;5030117;28;20055;-90
2022/04/26 14:07:52;;;;;;;;;;;19.40;66.20;;;;;;5031368;28;19920;-90
2022/04/26 14:10:18;;;;;;;;;;;19.20;65.80;;;;;;5034942;28;19976;-90
2022/04/26 14:12:44;;;;;;;;;;;19.30;66.40;;;;;;5033919;28;20272;-90
2022/04/26 14:23:25;;;;;;;;;;;19.50;65.60;;;;;;5034445;28;20334;-89
2022/04/26 14:25:51;;;;;;;;;;;19.40;66.20;;;;;;5029156;28;20398;-90
2022/04/26 14:28:16;;;;;;;;;;;19.40;64.40;;;;;;5029452;28;20359;-89
2022/04/26 14:30:42;;;;;;;;;;;19.40;64.80;;;;;;5014897;28;20753;-90
2022/04/26 14:33:07;;;;;;;;;;;19.30;64.30;;;;;;5030764;28;19963;-90
2022/04/26 14:35:33;;;;;;;;;;;19.30;64.40;;;;;;5033592;28;20526;-89
2022/04/26 14:37:59;;;;;;;;;;;19.20;65.20;;;;;;5033061;28;19965;-89
2022/04/26 14:40:25;;;;;;;;;;;19.10;66.60;;;;;;5033759;28;19931;-90
2022/04/26 14:42:50;;;;;;;;;;;19.00;70.20;;;;;;5032829;28;19978;-89
2022/04/26 14:45:16;;;;;;;;;;;18.80;69.50;;;;;;5033792;28;19913;-89
2022/04/26 14:47:42;;;;;;;;;;;18.50;71.30;;;;;;5030691;28;21385;-89
2022/04/26 14:50:09;;;;;;;;;;;18.40;71.30;;;;;;5027804;28;19913;-90
2022/04/26 14:52:36;;;;;;;;;;;18.30;70.70;;;;;;5033053;28;20078;-89
2022/04/26 14:55:04;;;;;;;;;;;18.20;71.50;;;;;;5033622;28;19968;-89
2022/04/26 14:57:29;;;;;;;;;;;18.10;72.90;;;;;;5032366;28;19958;-89
2022/04/26 14:59:55;;;;;;;;;;;17.80;73.30;;;;;;5033012;28;20035;-89
2022/04/26 15:02:21;;;;;;;;;;;17.50;74.00;;;;;;5033582;28;20023;-90
2022/04/26 15:04:47;;;;;;;;;;;17.40;74.60;;;;;;5028639;28;19968;-89
2022/04/26 15:07:13;;;;;;;;;;;17.30;75.90;;;;;;5030608;28;19967;-89
2022/04/26 15:09:42;;;;;;;;;;;17.30;77.70;;;;;;5032840;28;19984;-89
2022/04/26 15:17:38;;;;;;;;;;;17.40;78.70;;;;;;5028452;28;19965;-89
2022/04/26 15:20:04;;;;;;;;;;;17.10;78.00;;;;;;5013136;28;20032;-89
2022/04/26 15:22:29;;;;;;;;;;;17.10;79.40;;;;;;5033291;28;19966;-89
2022/04/26 15:24:55;;;;;;;;;;;17.10;79.30;;;;;;5033406;28;20003;-89
2022/04/26 15:27:21;;;;;;;;;;;17.00;80.10;;;;;;5030871;28;19959;-89
2022/04/26 15:29:47;;;;;;;;;;;16.80;80.20;;;;;;5029475;28;19962;-89
2022/04/26 15:32:13;;;;;;;;;;;16.60;82.40;;;;;;5029162;28;20531;-89
2022/04/26 15:34:38;;;;;;;;;;;16.40;83.60;;;;;;5031609;28;20089;-89
2022/04/26 15:37:04;;;;;;;;;;;16.20;83.00;;;;;;5027067;28;20038;-88
2022/04/26 15:39:30;;;;;;;;;;;15.90;83.60;;;;;;5027495;28;19976;-89
2022/04/26 15:41:56;;;;;;;;;;;15.70;84.70;;;;;;5026473;28;19940;-89
2022/04/26 15:44:22;;;;;;;;;;;15.60;86.00;;;;;;5030764;28;20026;-89
2022/04/26 15:46:50;;;;;;;;;;;15.60;86.20;;;;;;5028948;28;20403;-88
2022/04/26 15:49:18;;;;;;;;;;;15.60;86.00;;;;;;5026248;28;19964;-89
2022/04/26 15:51:44;;;;;;;;;;;15.60;86.30;;;;;;5028008;28;20003;-89
2022/04/26 15:54:09;;;;;;;;;;;15.60;86.60;;;;;;5028668;28;19950;-88
2022/04/26 15:56:35;;;;;;;;;;;15.70;86.60;;;;;;5030419;28;19948;-89
2022/04/26 15:59:01;;;;;;;;;;;15.70;86.60;;;;;;5032373;28;20116;-89
2022/04/26 16:01:26;;;;;;;;;;;15.70;86.80;;;;;;5037298;28;20022;-89
2022/04/26 16:03:52;;;;;;;;;;;15.80;86.90;;;;;;5024693;28;19948;-89
2022/04/26 16:06:19;;;;;;;;;;;15.80;86.60;;;;;;5031107;28;19947;-89
2022/04/26 16:08:44;;;;;;;;;;;15.80;86.80;;;;;;5029418;28;20045;-89
2022/04/26 16:22:07;;;;;;;;;;;15.70;88.80;;;;;;5030804;28;19952;-89
2022/04/26 16:24:38;;;;;;;;;;;15.80;88.40;;;;;;5028988;28;19975;-89
2022/04/26 16:27:07;;;;;;;;;;;15.70;87.80;;;;;;5032256;28;20320;-89
2022/04/26 16:29:32;;;;;;;;;;;15.70;87.60;;;;;;5033039;28;19954;-89
2022/04/26 16:31:58;;;;;;;;;;;15.70;87.90;;;;;;5029360;28;20333;-89
2022/04/26 16:34:23;;;;;;;;;;;15.60;87.40;;;;;;5039930;28;19944;-89
2022/04/26 16:36:50;;;;;;;;;;;15.60;88.10;;;;;;5032475;28;19999;-88
2022/04/26 16:39:16;;;;;;;;;;;15.60;88.00;;;;;;5030743;28;19975;-90
2022/04/26 16:41:41;;;;;;;;;;;15.80;89.10;;;;;;5032486;28;19958;-90
2022/04/26 16:44:07;;;;;;;;;;;16.30;88.40;;;;;;5030493;28;19962;-89
2022/04/26 16:46:35;;;;;;;;;;;16.80;85.50;;;;;;5031109;28;19973;-90
2022/04/26 16:49:02;;;;;;;;;;;17.40;84.80;;;;;;5031405;28;19966;-90
2022/04/26 16:51:30;;;;;;;;;;;17.90;81.00;;;;;;5025023;28;19994;-90
2022/04/26 16:53:56;;;;;;;;;;;18.20;80.30;;;;;;5028379;28;19974;-90
2022/04/26 16:56:21;;;;;;;;;;;18.30;80.10;;;;;;5023015;28;20037;-89
2022/04/26 16:58:47;;;;;;;;;;;18.50;80.70;;;;;;5030139;28;20033;-90
2022/04/26 17:01:13;;;;;;;;;;;18.60;79.70;;;;;;5024757;28;19933;-90
2022/04/26 17:03:38;;;;;;;;;;;18.70;78.10;;;;;;5034057;28;20032;-90
2022/04/26 17:06:04;;;;;;;;;;;18.80;78.20;;;;;;5031037;28;19941;-90
2022/04/26 17:08:30;;;;;;;;;;;18.80;78.30;;;;;;5030002;28;20419;-89
2022/04/26 17:11:41;;;;;;;;;;;18.70;78.00;;;;;;5029374;28;19947;-89
2022/04/26 17:13:42;;;;;;;;;;;18.50;76.30;;;;;;5027717;28;19975;-89
2022/04/26 17:16:08;;;;;;;;;;;18.40;77.10;;;;;;5026780;28;19953;-90
2022/04/26 17:18:34;;;;;;;;;;;18.30;77.90;;;;;;5026180;28;19990;-90
2022/04/26 17:21:00;;;;;;;;;;;18.30;78.40;;;;;;5031143;28;20102;-90
2022/04/26 17:23:26;;;;;;;;;;;18.20;78.60;;;;;;5028897;28;20450;-89
2022/04/26 17:25:51;;;;;;;;;;;17.80;79.30;;;;;;5027499;28;20396;-90
2022/04/26 17:28:17;;;;;;;;;;;17.70;80.60;;;;;;5030505;28;19987;-90
2022/04/26 17:30:42;;;;;;;;;;;17.60;80.80;;;;;;5032187;28;20288;-90
2022/04/26 17:33:08;;;;;;;;;;;17.40;81.40;;;;;;5032258;28;19963;-90
2022/04/26 17:35:33;;;;;;;;;;;17.30;81.60;;;;;;5027426;28;19976;-90
2022/04/26 17:37:59;;;;;;;;;;;17.20;81.80;;;;;;5032747;28;20031;-90
2022/04/26 17:40:25;;;;;;;;;;;17.10;82.80;;;;;;5031366;28;20318;-90
2022/04/26 17:42:51;;;;;;;;;;;16.90;83.20;;;;;;5030495;28;19960;-90
2022/04/26 17:45:16;;;;;;;;;;;16.70;84.30;;;;;;5030942;28;20050;-89
2022/04/26 17:47:42;;;;;;;;;;;16.50;85.90;;;;;;5014802;28;20339;-90
2022/04/26 17:50:07;;;;;;;;;;;16.30;86.40;;;;;;5032405;28;20336;-89
2022/04/26 17:56:28;;;;;;;;;;;16.10;86.80;;;;;;5031955;28;20397;-90
2022/04/26 17:58:03;;;;;;;;;;;16.00;87.30;;;;;;5032244;28;19979;-90
2022/04/26 18:00:29;;;;;;;;;;;15.90;87.40;;;;;;5035194;28;19950;-89
2022/04/26 18:02:54;;;;;;;;;;;15.70;87.80;;;;;;5035730;28;19945;-90
2022/04/26 18:05:20;;;;;;;;;;;15.50;88.20;;;;;;5035999;28;19927;-89
2022/04/26 18:07:46;;;;;;;;;;;15.40;88.60;;;;;;5035781;28;19975;-89
2022/04/26 18:10:12;;;;;;;;;;;15.30;88.70;;;;;;5035228;28;19951;-89
2022/04/26 18:12:38;;;;;;;;;;;15.10;88.70;;;;;;5035495;28;19988;-89
2022/04/26 18:15:04;;;;;;;;;;;14.90;89.50;;;;;;5035747;28;19977;-89
2022/04/26 18:17:29;;;;;;;;;;;14.90;90.00;;;;;;5035602;28;19968;-90
2022/04/26 18:19:55;;;;;;;;;;;14.80;90.00;;;;;;5035443;28;19957;-88
2022/04/26 18:22:20;;;;;;;;;;;14.60;89.80;;;;;;5035301;28;20408;-89
2022/04/26 18:24:47;;;;;;;;;;;14.50;90.40;;;;;;5035660;28;20333;-89
2022/04/26 18:27:12;;;;;;;;;;;14.40;90.70;;;;;;5035316;28;19956;-89
2022/04/26 18:29:38;;;;;;;;;;;14.40;90.60;;;;;;5035576;28;20461;-89
2022/04/26 18:32:04;;;;;;;;;;;14.40;90.70;;;;;;5035106;28;20479;-89
2022/04/26 18:34:29;;;;;;;;;;;14.30;90.20;;;;;;5033942;28;19981;-89
2022/04/26 18:36:55;;;;;;;;;;;14.30;90.40;;;;;;5035658;28;20016;-89
2022/04/26 18:39:21;;;;;;;;;;;14.30;90.50;;;;;;5034981;28;20424;-89
2022/04/26 18:41:48;;;;;;;;;;;14.30;90.40;;;;;;5035103;28;19965;-89
2022/04/26 18:44:16;;;;;;;;;;;14.30;90.60;;;;;;5035307;28;19963;-88
2022/04/26 18:46:42;;;;;;;;;;;14.30;90.80;;;;;;5034029;28;20403;-89